Time;durP1;ratioP1;P1;durP2;ratioP2;P2;SDS_P1;SDS_P2;PMS_P1;PMS_P2;Temp;Humidity;BMP_temperature;BMP_pressure;BME280_temperature;BME280_humidity;BME280_pressure;Samples;Min_cycle;Max_cycle;Signal;HPM_P1;HPM_P2
2022/03/30 00:00:13;;;;;;;16.23;14.30;;;11.20;70.60;;;;;;5020884;28;20492;-83
2022/03/30 00:02:40;;;;;;;18.90;14.83;;;11.20;70.70;;;;;;5024550;28;20452;-83
2022/03/30 00:05:08;;;;;;;28.37;16.00;;;11.30;71.10;;;;;;5040391;28;20461;-83
2022/03/30 00:07:34;;;;;;;20.10;15.77;;;11.40;71.20;;;;;;5037978;28;20949;-83
2022/03/30 00:10:01;;;;;;;19.20;16.30;;;11.50;71.00;;;;;;5020927;28;20473;-83
2022/03/30 00:12:29;;;;;;;19.47;17.50;;;11.60;70.30;;;;;;5021101;28;20489;-82
2022/03/30 00:14:58;;;;;;;19.30;14.23;;;11.60;69.80;;;;;;5041004;28;20452;-83
2022/03/30 00:17:25;;;;;;;20.10;15.43;;;11.70;69.50;;;;;;5039408;28;20453;-83
2022/03/30 00:19:51;;;;;;;22.43;16.00;;;11.80;69.50;;;;;;5020459;28;20464;-83
2022/03/30 00:22:18;;;;;;;18.67;14.57;;;11.80;69.60;;;;;;5020627;28;20446;-84
2022/03/30 00:24:45;;;;;;;16.57;14.20;;;11.70;69.60;;;;;;5039209;28;20464;-83
2022/03/30 00:27:12;;;;;;;20.73;16.30;;;11.50;69.90;;;;;;5040123;28;20430;-83
2022/03/30 00:29:39;;;;;;;22.70;16.90;;;11.40;70.60;;;;;;5038236;28;20462;-83
2022/03/30 00:32:08;;;;;;;18.00;15.20;;;11.40;71.00;;;;;;5039482;28;21087;-83
2022/03/30 00:34:35;;;;;;;21.33;16.57;;;11.50;72.00;;;;;;5023199;28;20457;-83
2022/03/30 00:37:02;;;;;;;16.90;14.90;;;11.50;71.80;;;;;;5021366;28;20458;-83
2022/03/30 00:39:29;;;;;;;19.17;15.33;;;11.60;71.90;;;;;;5034614;28;20456;-83
2022/03/30 00:41:55;;;;;;;21.03;16.47;;;11.70;72.10;;;;;;5039514;28;20469;-83
2022/03/30 00:44:22;;;;;;;16.47;14.50;;;11.70;71.40;;;;;;5038212;28;20474;-82
2022/03/30 00:46:49;;;;;;;19.30;15.40;;;11.80;71.30;;;;;;5039890;28;20464;-83
2022/03/30 00:49:17;;;;;;;22.03;15.77;;;11.80;71.10;;;;;;5024020;28;20439;-83
2022/03/30 00:51:44;;;;;;;18.30;15.00;;;11.70;71.30;;;;;;5020159;28;20495;-83
2022/03/30 00:54:11;;;;;;;14.83;13.33;;;11.40;72.10;;;;;;5034971;28;20460;-83
2022/03/30 00:56:40;;;;;;;24.00;16.47;;;11.30;73.30;;;;;;5039788;28;20455;-83
2022/03/30 00:59:07;;;;;;;20.90;18.03;;;11.40;73.30;;;;;;5039552;28;20427;-82
2022/03/30 01:01:35;;;;;;;19.43;16.80;;;11.50;73.20;;;;;;5039468;28;20443;-83
2022/03/30 01:04:03;;;;;;;20.67;15.80;;;11.60;72.60;;;;;;5025630;28;20843;-82
2022/03/30 01:06:31;;;;;;;21.23;15.20;;;11.40;72.50;;;;;;5020340;28;20453;-81
2022/03/30 01:08:58;;;;;;;19.70;14.30;;;11.20;73.60;;;;;;5029211;28;20452;-81
2022/03/30 01:11:25;;;;;;;19.20;13.40;;;11.20;74.10;;;;;;5021739;28;20484;-83
2022/03/30 01:13:52;;;;;;;18.20;13.20;;;11.20;74.50;;;;;;5019298;28;20454;-83
2022/03/30 01:16:20;;;;;;;17.40;15.37;;;11.20;74.50;;;;;;5020475;28;20459;-83
2022/03/30 01:18:47;;;;;;;16.10;13.23;;;11.00;75.30;;;;;;5021268;28;20977;-83
2022/03/30 01:21:17;;;;;;;14.93;13.37;;;10.90;75.70;;;;;;5019313;28;21002;-82
2022/03/30 01:23:43;;;;;;;16.47;13.73;;;11.00;76.40;;;;;;5029061;28;20468;-83
2022/03/30 01:26:10;;;;;;;20.10;15.43;;;11.00;76.40;;;;;;5039352;28;20455;-82
2022/03/30 01:28:37;;;;;;;20.80;14.00;;;10.90;77.00;;;;;;5030927;28;20464;-83
2022/03/30 01:33:49;;;;;;;19.30;14.53;;;11.10;77.70;;;;;;5028659;28;20447;-83
2022/03/30 01:36:19;;;;;;;17.03;14.10;;;11.20;77.10;;;;;;5038877;28;20459;-83
2022/03/30 01:38:45;;;;;;;22.10;16.80;;;11.40;77.30;;;;;;5027183;28;20978;-83
2022/03/30 01:41:13;;;;;;;16.53;14.77;;;11.50;77.00;;;;;;5020070;28;20496;-83
2022/03/30 01:43:39;;;;;;;18.63;15.77;;;11.60;77.20;;;;;;5029730;28;20457;-83
2022/03/30 01:46:06;;;;;;;16.67;13.70;;;11.50;76.80;;;;;;5036735;28;20961;-83
2022/03/30 01:48:33;;;;;;;18.47;15.73;;;11.20;77.70;;;;;;5029002;28;20464;-82
2022/03/30 01:51:01;;;;;;;19.30;15.73;;;11.20;78.60;;;;;;5041718;28;20484;-79
2022/03/30 01:53:29;;;;;;;20.77;13.30;;;11.10;78.20;;;;;;5037033;28;20517;-79
2022/03/30 01:55:55;;;;;;;16.63;14.90;;;11.20;78.90;;;;;;5031826;28;20453;-82
2022/03/30 01:58:23;;;;;;;19.77;14.40;;;11.30;79.10;;;;;;5031298;28;20460;-83
2022/03/30 02:00:50;;;;;;;17.77;13.80;;;11.30;78.20;;;;;;5019195;28;21007;-83
2022/03/30 02:03:17;;;;;;;17.20;13.70;;;11.30;77.90;;;;;;5036998;28;20449;-83
2022/03/30 02:05:43;;;;;;;18.17;16.17;;;11.50;77.70;;;;;;5039612;28;20832;-83
2022/03/30 02:08:10;;;;;;;16.33;14.50;;;11.60;78.10;;;;;;5028312;28;20452;-83
2022/03/30 02:10:39;;;;;;;21.73;15.50;;;11.40;78.40;;;;;;5039237;28;20454;-83
2022/03/30 02:13:06;;;;;;;16.63;14.37;;;11.30;79.70;;;;;;5022214;28;20489;-83
2022/03/30 02:15:33;;;;;;;15.63;12.97;;;11.50;79.10;;;;;;5019185;28;20452;-83
2022/03/30 02:17:59;;;;;;;19.57;15.00;;;11.60;79.10;;;;;;5028790;28;20461;-82
2022/03/30 02:20:26;;;;;;;18.57;14.33;;;11.50;77.80;;;;;;5019131;28;20675;-83
2022/03/30 02:22:53;;;;;;;15.33;13.57;;;11.30;78.90;;;;;;5031524;28;20452;-83
2022/03/30 02:25:20;;;;;;;19.57;15.40;;;11.40;78.70;;;;;;5040202;28;20454;-82
2022/03/30 02:27:48;;;;;;;18.27;16.40;;;11.50;78.20;;;;;;5033975;28;20464;-83
2022/03/30 02:30:15;;;;;;;21.87;17.20;;;11.60;78.00;;;;;;5043050;28;20471;-83
2022/03/30 02:32:44;;;;;;;18.63;14.20;;;11.60;77.40;;;;;;5032049;28;20498;-82
2022/03/30 02:35:12;;;;;;;18.40;14.07;;;11.50;78.50;;;;;;5022995;28;20456;-83
2022/03/30 02:37:39;;;;;;;17.17;13.23;;;11.30;78.70;;;;;;5031314;28;20460;-83
2022/03/30 02:40:07;;;;;;;18.80;16.47;;;11.40;78.80;;;;;;5022074;28;20484;-81
2022/03/30 02:42:33;;;;;;;14.97;13.40;;;11.50;78.00;;;;;;5023351;28;20475;-83
2022/03/30 02:45:01;;;;;;;19.70;14.80;;;11.70;77.70;;;;;;5032216;28;20456;-82
2022/03/30 02:50:13;;;;;;;13.83;11.63;;;11.60;77.50;;;;;;5002771;28;20571;-84
2022/03/30 02:52:40;;;;;;;20.60;18.07;;;11.70;77.60;;;;;;5035576;28;20483;-83
2022/03/30 02:55:07;;;;;;;19.70;16.10;;;11.70;77.40;;;;;;5043041;28;20458;-81
2022/03/30 02:57:34;;;;;;;22.03;17.00;;;11.60;77.70;;;;;;5027793;28;20440;-81
2022/03/30 03:00:04;;;;;;;20.60;15.53;;;11.70;77.50;;;;;;5051680;28;20488;-81
2022/03/30 03:02:31;;;;;;;16.27;14.00;;;11.70;77.40;;;;;;5032291;28;20458;-82
2022/03/30 03:04:58;;;;;;;19.03;16.87;;;11.70;77.30;;;;;;5022844;28;20468;-83
2022/03/30 03:07:24;;;;;;;22.17;15.47;;;11.70;77.70;;;;;;5034297;28;20669;-83
2022/03/30 03:09:52;;;;;;;21.00;16.13;;;11.80;78.20;;;;;;5023323;28;20453;-83
2022/03/30 03:12:19;;;;;;;21.07;17.47;;;11.80;78.10;;;;;;5032367;28;20572;-82
2022/03/30 03:14:46;;;;;;;17.33;14.27;;;11.60;77.80;;;;;;5041373;28;20474;-82
2022/03/30 03:17:14;;;;;;;16.77;15.00;;;11.50;78.00;;;;;;5037853;28;20456;-82
2022/03/30 03:19:41;;;;;;;19.07;16.57;;;11.60;78.30;;;;;;5025922;28;20475;-81
2022/03/30 03:22:08;;;;;;;18.53;14.03;;;11.60;78.50;;;;;;5029900;28;20492;-82
2022/03/30 03:24:35;;;;;;;16.97;15.30;;;11.40;79.70;;;;;;5041551;28;20456;-82
2022/03/30 03:27:02;;;;;;;19.90;15.43;;;11.50;79.50;;;;;;5023989;28;20456;-81
2022/03/30 03:29:28;;;;;;;27.73;15.83;;;11.50;79.30;;;;;;5011631;28;20454;-81
2022/03/30 03:31:55;;;;;;;22.70;16.87;;;11.50;78.00;;;;;;5012560;28;20489;-81
2022/03/30 03:34:23;;;;;;;22.43;16.53;;;11.50;77.50;;;;;;5010585;28;20504;-82
2022/03/30 03:36:50;;;;;;;22.73;19.80;;;11.50;77.50;;;;;;5022168;28;20431;-81
2022/03/30 03:39:17;;;;;;;21.00;16.33;;;11.50;77.50;;;;;;5020472;28;20449;-81
2022/03/30 03:41:44;;;;;;;24.23;18.63;;;11.50;77.90;;;;;;5022771;28;20462;-81
2022/03/30 03:44:11;;;;;;;17.80;16.07;;;11.50;78.40;;;;;;5018281;28;20546;-81
2022/03/30 03:46:38;;;;;;;18.83;16.80;;;11.50;78.00;;;;;;5012350;28;20453;-81
2022/03/30 03:49:04;;;;;;;19.23;15.73;;;11.50;77.80;;;;;;5009503;28;20437;-82
2022/03/30 03:51:33;;;;;;;22.73;15.57;;;11.50;78.60;;;;;;5011832;28;20476;-82
2022/03/30 03:53:59;;;;;;;18.83;16.33;;;11.50;79.20;;;;;;5020714;28;20457;-81
2022/03/30 03:56:27;;;;;;;19.83;16.37;;;11.60;80.20;;;;;;5021198;28;20461;-81
2022/03/30 03:58:55;;;;;;;16.73;14.93;;;11.60;79.40;;;;;;5019866;28;20540;-81
2022/03/30 04:01:22;;;;;;;19.33;15.87;;;11.60;80.10;;;;;;5030230;28;20448;-82
2022/03/30 04:03:49;;;;;;;17.20;15.07;;;11.70;80.00;;;;;;5041117;28;20449;-83
2022/03/30 04:06:15;;;;;;;18.87;15.07;;;11.60;78.50;;;;;;5041120;28;20943;-83
2022/03/30 04:08:44;;;;;;;17.67;15.33;;;11.50;78.50;;;;;;5041615;28;20457;-82
2022/03/30 04:11:10;;;;;;;18.23;14.83;;;11.30;79.60;;;;;;5039279;28;20476;-83
2022/03/30 04:13:37;;;;;;;17.30;14.70;;;11.20;80.30;;;;;;5040229;28;20947;-83
2022/03/30 04:16:05;;;;;;;28.27;16.20;;;11.20;80.80;;;;;;5040866;28;20444;-83
2022/03/30 04:18:31;;;;;;;20.37;14.30;;;11.20;81.40;;;;;;5040424;28;20826;-83
2022/03/30 04:20:58;;;;;;;18.07;15.90;;;11.10;82.10;;;;;;5039433;28;20491;-83
2022/03/30 04:23:25;;;;;;;17.30;15.40;;;11.00;83.00;;;;;;5040640;28;20459;-83
2022/03/30 04:25:53;;;;;;;19.67;17.17;;;11.00;83.90;;;;;;5040520;28;20445;-83
2022/03/30 04:28:20;;;;;;;16.80;15.00;;;11.00;85.40;;;;;;5040715;28;20453;-83
2022/03/30 04:30:46;;;;;;;20.53;16.47;;;11.00;87.50;;;;;;5040008;28;20701;-83
2022/03/30 04:33:13;;;;;;;22.33;18.13;;;11.00;89.10;;;;;;5040864;28;20487;-83
2022/03/30 04:35:40;;;;;;;21.67;15.83;;;10.90;91.20;;;;;;5040383;28;20460;-84
2022/03/30 04:38:07;;;;;;;18.13;16.10;;;10.80;92.10;;;;;;5040314;28;20451;-84
2022/03/30 04:40:33;;;;;;;18.93;15.03;;;10.50;93.20;;;;;;5039532;28;20480;-83
2022/03/30 04:43:02;;;;;;;21.20;17.00;;;10.40;95.00;;;;;;5040264;28;20872;-83
2022/03/30 04:45:29;;;;;;;25.50;17.13;;;10.30;96.10;;;;;;5040514;28;20451;-84
2022/03/30 04:47:57;;;;;;;21.00;16.20;;;10.30;97.00;;;;;;5039228;28;20451;-83
2022/03/30 04:50:24;;;;;;;19.83;15.73;;;10.30;97.60;;;;;;5039260;28;20475;-84
2022/03/30 04:52:52;;;;;;;19.70;16.77;;;10.10;98.60;;;;;;5040048;28;20491;-82
2022/03/30 04:55:19;;;;;;;20.07;15.70;;;10.00;99.50;;;;;;5039844;28;20452;-83
2022/03/30 04:57:47;;;;;;;20.73;16.00;;;9.90;99.90;;;;;;5039175;28;20463;-83
2022/03/30 05:00:15;;;;;;;19.80;14.17;;;9.70;99.90;;;;;;5038958;28;20476;-82
2022/03/30 05:02:42;;;;;;;24.40;17.83;;;9.80;99.90;;;;;;5038990;28;20975;-83
2022/03/30 05:05:10;;;;;;;26.60;18.00;;;9.90;99.90;;;;;;5039484;28;20458;-83
2022/03/30 05:07:38;;;;;;;23.13;15.53;;;9.80;99.90;;;;;;5039494;28;20446;-82
2022/03/30 05:10:06;;;;;;;23.17;16.07;;;9.70;99.90;;;;;;5038787;28;20467;-83
2022/03/30 05:12:34;;;;;;;22.37;16.77;;;9.70;99.90;;;;;;5039528;28;20549;-82
2022/03/30 05:15:00;;;;;;;23.37;17.00;;;9.60;99.90;;;;;;5040000;28;20470;-82
2022/03/30 05:17:28;;;;;;;26.27;20.33;;;9.60;99.90;;;;;;5040251;28;20466;-83
2022/03/30 05:19:55;;;;;;;24.70;15.87;;;9.70;99.90;;;;;;5038377;28;20461;-83
2022/03/30 05:22:22;;;;;;;23.07;16.47;;;9.60;99.90;;;;;;5039684;28;20451;-82
2022/03/30 05:24:49;;;;;;;25.47;19.20;;;9.60;99.90;;;;;;5040673;28;20461;-83
2022/03/30 05:27:16;;;;;;;23.10;17.97;;;9.50;99.90;;;;;;5040187;28;20483;-82
2022/03/30 05:29:43;;;;;;;22.07;16.70;;;9.40;99.90;;;;;;5044319;28;20489;-80
2022/03/30 05:32:09;;;;;;;22.40;18.67;;;9.30;99.90;;;;;;5057266;28;20464;-80
2022/03/30 05:34:37;;;;;;;20.97;17.00;;;9.40;99.90;;;;;;5052576;28;20459;-81
2022/03/30 05:37:04;;;;;;;24.60;16.97;;;9.30;99.90;;;;;;5041216;28;20481;-81
2022/03/30 05:39:31;;;;;;;26.73;17.43;;;9.40;99.90;;;;;;5039474;28;20478;-82
2022/03/30 05:41:58;;;;;;;25.70;16.97;;;9.40;99.90;;;;;;5038735;28;20491;-82
2022/03/30 05:44:25;;;;;;;26.63;18.43;;;9.40;99.90;;;;;;5039065;28;20825;-83
2022/03/30 05:46:52;;;;;;;23.97;17.00;;;9.50;99.90;;;;;;5045744;28;20451;-82
2022/03/30 05:49:18;;;;;;;22.23;19.13;;;9.50;99.90;;;;;;5041194;28;20463;-82
2022/03/30 05:51:46;;;;;;;21.20;16.37;;;9.50;99.90;;;;;;5039195;28;20475;-82
2022/03/30 05:54:13;;;;;;;20.27;17.80;;;9.50;99.90;;;;;;5039438;28;21024;-82
2022/03/30 05:59:24;;;;;;;23.37;16.90;;;9.50;99.90;;;;;;5040103;28;20493;-83
2022/03/30 06:01:51;;;;;;;26.93;20.83;;;9.60;99.90;;;;;;5040507;28;20477;-83
2022/03/30 06:04:17;;;;;;;29.23;16.73;;;9.50;99.90;;;;;;5041188;28;20460;-83
2022/03/30 06:06:45;;;;;;;34.17;18.33;;;9.40;99.90;;;;;;5041000;28;20780;-83
2022/03/30 06:09:12;;;;;;;24.47;18.37;;;9.40;99.90;;;;;;5040431;28;20451;-84
2022/03/30 06:11:39;;;;;;;29.27;20.70;;;9.50;99.90;;;;;;5041750;28;20490;-83
2022/03/30 06:14:06;;;;;;;19.57;16.60;;;9.60;99.90;;;;;;5046348;28;20581;-83
2022/03/30 06:16:33;;;;;;;27.93;18.30;;;9.60;99.90;;;;;;5039938;28;20453;-83
2022/03/30 06:19:00;;;;;;;31.20;17.67;;;9.70;99.90;;;;;;5039487;28;20501;-83
2022/03/30 06:21:27;;;;;;;26.83;19.53;;;9.70;99.90;;;;;;5039867;28;20480;-84
2022/03/30 06:23:55;;;;;;;21.53;16.77;;;9.80;99.90;;;;;;5040084;28;20858;-83
2022/03/30 06:26:22;;;;;;;21.13;16.77;;;9.90;99.90;;;;;;5040570;28;20456;-82
2022/03/30 06:28:49;;;;;;;23.73;17.60;;;10.00;99.90;;;;;;5039305;28;20934;-83
2022/03/30 06:31:17;;;;;;;21.47;17.70;;;10.00;99.90;;;;;;5039674;28;20482;-84
2022/03/30 06:33:44;;;;;;;22.40;17.47;;;10.00;99.90;;;;;;5038665;28;20494;-84
2022/03/30 06:36:11;;;;;;;23.77;15.17;;;10.00;99.90;;;;;;5039556;28;20460;-84
2022/03/30 06:38:38;;;;;;;19.37;16.73;;;10.10;99.90;;;;;;5039177;28;20456;-83
2022/03/30 06:41:07;;;;;;;21.93;15.50;;;10.20;99.90;;;;;;5039375;28;20518;-84
2022/03/30 06:43:34;;;;;;;19.30;13.97;;;10.20;99.90;;;;;;5039647;28;21016;-84
2022/03/30 06:46:01;;;;;;;24.80;15.43;;;10.20;99.90;;;;;;5039891;28;20482;-84
2022/03/30 06:48:28;;;;;;;26.60;17.00;;;10.20;99.90;;;;;;5039728;28;20455;-83
2022/03/30 06:50:55;;;;;;;18.13;15.83;;;10.30;99.90;;;;;;5039378;28;20476;-84
2022/03/30 06:53:21;;;;;;;18.70;14.83;;;10.30;99.90;;;;;;5039491;28;20492;-84
2022/03/30 06:55:48;;;;;;;25.20;17.07;;;10.40;99.90;;;;;;5039529;28;20449;-84
2022/03/30 06:58:16;;;;;;;23.40;17.20;;;10.40;99.90;;;;;;5040111;28;20812;-84
2022/03/30 07:00:43;;;;;;;27.07;18.93;;;10.40;99.90;;;;;;5038528;28;20474;-84
2022/03/30 07:03:10;;;;;;;20.37;18.20;;;10.40;99.90;;;;;;5038701;28;20451;-84
2022/03/30 07:05:38;;;;;;;24.37;18.97;;;10.40;99.90;;;;;;5039830;28;20601;-83
2022/03/30 07:10:49;;;;;;;20.10;17.93;;;10.50;99.90;;;;;;5044869;28;20450;-83
2022/03/30 07:13:17;;;;;;;22.90;17.43;;;10.40;99.90;;;;;;5043283;28;20488;-85
2022/03/30 07:15:44;;;;;;;23.83;16.83;;;10.30;99.90;;;;;;5042572;28;20467;-84
2022/03/30 07:18:13;;;;;;;23.70;17.90;;;10.40;99.90;;;;;;5043661;28;20448;-84
2022/03/30 07:20:40;;;;;;;21.47;16.13;;;10.30;99.90;;;;;;5042320;28;20509;-85
2022/03/30 07:23:10;;;;;;;21.40;17.20;;;10.20;99.90;;;;;;5042757;28;20451;-84
2022/03/30 07:25:38;;;;;;;20.13;16.93;;;10.20;99.90;;;;;;5042381;28;20453;-85
2022/03/30 07:28:05;;;;;;;25.03;17.33;;;10.20;99.90;;;;;;5043170;28;20452;-84
2022/03/30 07:30:34;;;;;;;20.40;16.20;;;10.20;99.90;;;;;;5042686;28;20502;-85
2022/03/30 07:33:01;;;;;;;21.23;17.20;;;10.20;99.90;;;;;;5042205;28;20495;-84
2022/03/30 07:35:32;;;;;;;25.77;17.67;;;10.20;99.90;;;;;;5042993;28;20470;-84
2022/03/30 07:38:00;;;;;;;18.13;15.80;;;10.10;99.90;;;;;;5043615;28;20479;-84
2022/03/30 07:40:29;;;;;;;18.47;16.47;;;10.20;99.90;;;;;;5042655;28;21018;-85
2022/03/30 07:42:56;;;;;;;21.33;14.07;;;10.20;99.90;;;;;;5043678;28;20447;-84
2022/03/30 07:45:25;;;;;;;24.50;15.03;;;10.10;99.90;;;;;;5043316;28;20453;-85
2022/03/30 07:47:53;;;;;;;22.40;15.17;;;10.20;99.90;;;;;;5042735;28;20519;-84
2022/03/30 07:50:20;;;;;;;21.20;11.80;;;10.20;99.90;;;;;;5042096;28;20476;-84
2022/03/30 07:52:47;;;;;;;22.43;13.70;;;10.20;99.90;;;;;;5042361;28;20835;-85
2022/03/30 07:55:14;;;;;;;16.60;14.90;;;10.30;99.90;;;;;;5042740;28;20430;-84
2022/03/30 07:57:42;;;;;;;20.37;15.43;;;10.10;99.90;;;;;;5043544;28;20444;-85
2022/03/30 08:00:15;;;;;;;21.00;14.23;;;9.90;99.90;;;;;;5042157;28;20483;-84
2022/03/30 08:02:42;;;;;;;18.53;14.03;;;9.80;99.90;;;;;;5043048;28;20465;-84
2022/03/30 08:05:12;;;;;;;17.20;14.83;;;9.80;99.90;;;;;;5042549;28;20459;-84
2022/03/30 08:07:39;;;;;;;29.80;15.53;;;9.80;99.90;;;;;;5043315;28;20484;-84
2022/03/30 08:10:08;;;;;;;15.07;13.57;;;9.70;99.90;;;;;;5043172;28;20844;-84
2022/03/30 08:12:35;;;;;;;19.40;13.70;;;9.80;99.90;;;;;;5043149;28;20458;-84
2022/03/30 08:15:02;;;;;;;20.30;12.57;;;9.90;99.90;;;;;;5041432;28;20540;-85
2022/03/30 08:17:29;;;;;;;19.33;13.27;;;9.90;99.90;;;;;;5041024;28;20437;-84
2022/03/30 08:19:57;;;;;;;23.33;14.23;;;10.00;99.90;;;;;;5041422;28;20488;-84
2022/03/30 08:22:28;;;;;;;21.97;14.53;;;10.10;99.90;;;;;;5041609;28;20457;-85
2022/03/30 08:24:56;;;;;;;16.57;13.70;;;9.90;99.90;;;;;;5042100;28;20460;-83
2022/03/30 08:27:25;;;;;;;14.80;13.30;;;9.80;99.90;;;;;;5042563;28;20463;-84
2022/03/30 08:29:52;;;;;;;14.80;12.73;;;9.80;99.90;;;;;;5042768;28;20458;-84
2022/03/30 08:32:21;;;;;;;15.07;13.63;;;9.80;99.90;;;;;;5041869;28;20456;-85
2022/03/30 08:34:48;;;;;;;20.87;15.70;;;9.90;99.90;;;;;;5042243;28;20483;-85
2022/03/30 08:37:16;;;;;;;21.13;15.17;;;9.90;99.90;;;;;;5042901;28;20462;-84
2022/03/30 08:39:44;;;;;;;18.83;13.47;;;9.90;99.90;;;;;;5042945;28;20449;-84
2022/03/30 08:42:14;;;;;;;14.80;13.00;;;10.00;99.90;;;;;;5042694;28;20837;-84
2022/03/30 08:44:42;;;;;;;20.00;15.90;;;10.00;99.90;;;;;;5042904;28;20479;-85
2022/03/30 08:47:11;;;;;;;20.17;13.70;;;10.00;99.90;;;;;;5046293;28;20440;-85
2022/03/30 08:49:38;;;;;;;15.70;13.03;;;10.10;99.90;;;;;;5050930;28;20523;-84
2022/03/30 08:52:06;;;;;;;18.10;13.53;;;10.00;99.90;;;;;;5051050;28;20482;-84
2022/03/30 08:54:34;;;;;;;22.20;15.57;;;10.10;99.90;;;;;;5051329;28;20487;-83
2022/03/30 08:57:04;;;;;;;18.87;13.67;;;10.10;99.90;;;;;;5042184;28;20451;-84
2022/03/30 08:59:31;;;;;;;20.23;15.93;;;10.20;99.90;;;;;;5042725;28;20459;-85
2022/03/30 09:01:58;;;;;;;14.63;12.90;;;10.40;99.90;;;;;;5042302;28;20858;-84
2022/03/30 09:04:26;;;;;;;17.33;11.90;;;10.40;99.90;;;;;;5042396;28;20456;-85
2022/03/30 09:06:54;;;;;;;17.13;12.00;;;10.40;99.90;;;;;;5041759;28;20456;-85
2022/03/30 09:09:30;;;;;;;16.47;13.60;;;10.50;99.90;;;;;;5041793;28;20452;-82
2022/03/30 09:11:57;;;;;;;14.33;11.73;;;10.60;99.90;;;;;;5056372;28;20458;-82
2022/03/30 09:14:27;;;;;;;21.07;14.30;;;10.70;99.90;;;;;;5055229;28;20563;-84
2022/03/30 09:16:57;;;;;;;13.90;12.50;;;10.80;99.90;;;;;;5048120;28;20447;-85
2022/03/30 09:19:24;;;;;;;15.10;13.13;;;10.80;99.90;;;;;;5042283;28;20456;-85
2022/03/30 09:21:54;;;;;;;19.33;11.30;;;10.90;99.90;;;;;;5041104;28;20486;-85
2022/03/30 09:24:23;;;;;;;28.57;14.30;;;10.90;99.90;;;;;;5042107;28;20456;-85
2022/03/30 09:26:51;;;;;;;16.97;13.10;;;10.90;99.90;;;;;;5043127;28;20445;-85
2022/03/30 09:29:20;;;;;;;17.70;13.30;;;10.90;99.90;;;;;;5043422;28;20538;-85
2022/03/30 09:31:49;;;;;;;13.83;11.70;;;11.00;99.90;;;;;;5042165;28;20526;-86
2022/03/30 09:34:17;;;;;;;21.20;16.73;;;10.90;99.90;;;;;;5040120;28;20491;-85
2022/03/30 09:36:44;;;;;;;21.67;13.07;;;11.10;99.90;;;;;;5041492;28;20452;-86
2022/03/30 09:39:30;;;;;;;21.87;13.80;;;11.20;99.90;;;;;;5040745;28;20460;-86
2022/03/30 09:41:59;;;;;;;19.23;13.37;;;11.20;99.90;;;;;;5040072;28;20468;-85
2022/03/30 09:44:27;;;;;;;17.90;13.60;;;11.30;99.90;;;;;;5040818;28;20458;-86
2022/03/30 09:46:57;;;;;;;16.33;12.30;;;11.40;99.90;;;;;;5040434;28;20480;-86
2022/03/30 09:49:36;;;;;;;20.90;12.67;;;11.40;99.90;;;;;;5041501;28;20445;-86
2022/03/30 09:52:10;;;;;;;19.63;12.67;;;11.40;99.90;;;;;;5041008;28;20520;-85
2022/03/30 09:54:38;;;;;;;19.33;12.77;;;11.40;99.90;;;;;;5040986;28;20491;-86
2022/03/30 09:57:13;;;;;;;16.60;11.20;;;11.30;99.90;;;;;;5041093;28;20469;-86
2022/03/30 10:00:00;;;;;;;17.57;15.70;;;11.30;99.90;;;;;;5041356;28;20440;-86
2022/03/30 10:02:30;;;;;;;21.53;13.27;;;11.20;99.90;;;;;;5040699;28;20863;-86
2022/03/30 10:04:58;;;;;;;17.60;12.00;;;11.20;99.90;;;;;;5041285;28;20457;-86
2022/03/30 10:07:25;;;;;;;15.43;13.17;;;11.10;99.90;;;;;;5041392;28;20456;-86
2022/03/30 10:09:51;;;;;;;18.50;12.57;;;11.20;99.90;;;;;;5041830;28;20482;-86
2022/03/30 10:12:19;;;;;;;25.17;13.73;;;11.10;99.90;;;;;;5041368;28;20989;-86
2022/03/30 10:14:47;;;;;;;21.20;14.03;;;11.20;99.90;;;;;;5041608;28;21119;-86
2022/03/30 10:17:14;;;;;;;19.97;13.30;;;11.10;99.90;;;;;;5042633;28;20475;-87
2022/03/30 10:19:44;;;;;;;14.20;12.60;;;11.40;99.90;;;;;;5042362;28;20513;-87
2022/03/30 10:22:20;;;;;;;19.50;13.27;;;11.60;99.90;;;;;;5044214;28;20827;-86
2022/03/30 10:25:01;;;;;;;14.23;11.77;;;11.90;99.90;;;;;;5053396;28;20444;-86
2022/03/30 10:27:37;;;;;;;12.83;10.87;;;12.10;99.90;;;;;;5045162;28;20448;-86
2022/03/30 10:30:07;;;;;;;15.73;10.70;;;12.10;99.90;;;;;;5042237;28;20535;-86
2022/03/30 10:32:35;;;;;;;20.50;12.20;;;12.20;99.90;;;;;;5040914;28;20445;-86
2022/03/30 10:35:09;;;;;;;17.70;11.60;;;12.30;99.90;;;;;;5041298;28;20492;-86
2022/03/30 10:37:38;;;;;;;15.57;10.50;;;12.60;99.90;;;;;;5041017;28;20463;-86
2022/03/30 10:40:19;;;;;;;18.10;12.87;;;12.70;99.90;;;;;;5041451;28;20480;-87
2022/03/30 10:43:03;;;;;;;18.87;12.20;;;12.70;99.90;;;;;;5041582;28;20453;-87
2022/03/30 10:45:46;;;;;;;20.40;11.90;;;12.90;99.90;;;;;;5042122;28;20441;-85
2022/03/30 10:48:19;;;;;;;15.20;11.03;;;12.90;99.90;;;;;;5044646;28;20452;-86
2022/03/30 10:50:50;;;;;;;12.23;10.03;;;12.80;99.90;;;;;;5044714;28;20804;-86
2022/03/30 10:53:41;;;;;;;14.13;10.80;;;12.60;99.90;;;;;;5045381;28;20460;-86
2022/03/30 10:56:28;;;;;;;16.10;9.80;;;12.70;99.90;;;;;;5045691;28;20830;-87
2022/03/30 10:59:17;;;;;;;17.50;11.67;;;12.50;99.90;;;;;;5047028;28;20456;-87
2022/03/30 11:01:46;;;;;;;11.60;9.20;;;12.60;99.90;;;;;;5045259;28;20559;-86
2022/03/30 11:04:24;;;;;;;10.80;9.43;;;12.80;99.90;;;;;;5045677;28;20957;-86
2022/03/30 11:07:36;;;;;;;10.33;9.30;;;12.90;99.90;;;;;;5046167;28;20544;-87
2022/03/30 11:10:19;;;;;;;9.97;8.93;;;12.90;99.90;;;;;;5044650;28;20472;-86
2022/03/30 11:13:11;;;;;;;11.57;9.03;;;12.90;99.90;;;;;;5044539;28;20453;-87
2022/03/30 11:16:07;;;;;;;18.17;10.23;;;12.80;99.90;;;;;;5044892;28;20504;-86
2022/03/30 11:18:35;;;;;;;9.90;8.77;;;12.30;99.90;;;;;;5044078;28;20866;-86
2022/03/30 11:21:18;;;;;;;17.17;10.10;;;12.50;99.90;;;;;;5044204;28;20476;-86
2022/03/30 11:24:18;;;;;;;12.70;9.03;;;12.40;99.90;;;;;;5043668;28;20693;-87
2022/03/30 11:27:21;;;;;;;13.40;9.83;;;12.40;99.90;;;;;;5044677;28;20430;-85
2022/03/30 11:29:56;;;;;;;9.13;8.33;;;12.00;99.90;;;;;;5044879;28;20479;-87
2022/03/30 11:32:51;;;;;;;15.17;8.77;;;11.80;99.90;;;;;;5044867;28;20445;-85
2022/03/30 11:35:20;;;;;;;13.73;10.17;;;11.30;99.90;;;;;;5044204;28;20495;-86
2022/03/30 11:37:48;;;;;;;15.00;10.40;;;11.20;99.90;;;;;;5044981;28;20451;-86
2022/03/30 11:40:18;;;;;;;11.57;9.33;;;10.90;99.90;;;;;;5044513;28;20503;-86
2022/03/30 11:42:48;;;;;;;13.27;11.97;;;10.90;99.90;;;;;;5043989;28;20467;-86
2022/03/30 11:45:20;;;;;;;16.53;11.00;;;10.70;99.90;;;;;;5044642;28;20458;-86
2022/03/30 11:47:49;;;;;;;15.80;12.30;;;10.60;99.90;;;;;;5043832;28;20449;-86
2022/03/30 11:50:20;;;;;;;14.50;10.93;;;10.60;99.90;;;;;;5043386;28;20843;-85
2022/03/30 11:52:55;;;;;;;18.63;11.77;;;10.60;99.90;;;;;;5042468;28;20464;-86
2022/03/30 11:55:22;;;;;;;17.27;12.33;;;10.70;99.90;;;;;;5032525;28;20483;-86
2022/03/30 11:57:52;;;;;;;13.20;10.63;;;10.70;99.90;;;;;;5025289;28;20459;-82
2022/03/30 12:00:23;;;;;;;15.00;11.87;;;10.70;99.90;;;;;;5027486;28;20816;-84
2022/03/30 12:02:51;;;;;;;15.27;11.83;;;10.70;99.90;;;;;;5041732;28;20448;-83
2022/03/30 12:05:19;;;;;;;20.67;12.80;;;10.80;99.90;;;;;;5022776;28;20477;-86
2022/03/30 12:07:51;;;;;;;17.90;14.30;;;10.70;99.90;;;;;;5024261;28;20462;-87
2022/03/30 12:10:18;;;;;;;14.80;13.23;;;10.80;99.90;;;;;;5026826;28;20480;-86
2022/03/30 12:12:45;;;;;;;15.80;13.60;;;10.80;99.90;;;;;;5023972;28;20458;-85
2022/03/30 12:15:17;;;;;;;16.93;13.67;;;10.90;99.90;;;;;;5037196;28;20480;-86
2022/03/30 12:17:49;;;;;;;18.63;15.27;;;10.80;99.90;;;;;;5046143;28;20506;-86
2022/03/30 12:20:23;;;;;;;20.90;14.93;;;10.90;99.90;;;;;;5043837;28;20488;-86
2022/03/30 12:22:58;;;;;;;17.97;14.60;;;11.00;99.90;;;;;;5045322;28;20445;-86
2022/03/30 12:25:27;;;;;;;16.90;14.33;;;11.00;99.90;;;;;;5033172;28;20468;-86
2022/03/30 12:27:53;;;;;;;15.00;13.27;;;11.00;99.90;;;;;;5023836;28;20483;-86
2022/03/30 12:30:22;;;;;;;16.67;13.40;;;11.20;99.90;;;;;;5036664;28;20498;-86
2022/03/30 12:32:49;;;;;;;14.23;12.73;;;11.30;99.90;;;;;;5047078;28;20511;-86
2022/03/30 12:35:17;;;;;;;18.37;14.17;;;11.40;99.90;;;;;;5033144;28;20496;-85
2022/03/30 12:37:46;;;;;;;17.30;14.83;;;11.50;99.90;;;;;;5026588;28;20456;-86
2022/03/30 12:40:14;;;;;;;20.00;17.30;;;11.60;99.90;;;;;;5024344;28;20573;-85
2022/03/30 12:42:43;;;;;;;20.17;15.40;;;11.60;99.90;;;;;;5031209;28;20433;-84
2022/03/30 12:45:14;;;;;;;22.47;14.93;;;11.50;99.90;;;;;;5030703;28;20524;-86
2022/03/30 12:47:48;;;;;;;16.70;15.07;;;11.40;99.90;;;;;;5028448;28;20484;-84